sensor_id;sensor_type;location;lat;lon;timestamp;P1;durP1;ratioP1;P2;durP2;ratioP2
37931;SDS011;23758;42.640;23.302;2024-01-30T00:00:33;3.50;;;3.30;;
37931;SDS011;23758;42.640;23.302;2024-01-30T00:02:58;3.65;;;3.45;;
37931;SDS011;23758;42.640;23.302;2024-01-30T00:05:23;3.80;;;3.60;;
37931;SDS011;23758;42.640;23.302;2024-01-30T00:07:49;3.90;;;3.65;;
37931;SDS011;23758;42.640;23.302;2024-01-30T00:10:18;3.70;;;3.50;;
37931;SDS011;23758;42.640;23.302;2024-01-30T00:12:43;3.78;;;3.58;;
37931;SDS011;23758;42.640;23.302;2024-01-30T00:15:08;3.85;;;3.65;;
37931;SDS011;23758;42.640;23.302;2024-01-30T00:17:35;3.80;;;3.60;;
37931;SDS011;23758;42.640;23.302;2024-01-30T00:20:02;3.75;;;3.55;;
37931;SDS011;23758;42.640;23.302;2024-01-30T00:22:30;4.00;;;3.70;;
37931;SDS011;23758;42.640;23.302;2024-01-30T00:24:58;4.15;;;3.85;;
37931;SDS011;23758;42.640;23.302;2024-01-30T00:27:24;4.10;;;3.80;;
37931;SDS011;23758;42.640;23.302;2024-01-30T00:29:51;3.90;;;3.70;;
37931;SDS011;23758;42.640;23.302;2024-01-30T00:32:16;3.97;;;3.70;;
37931;SDS011;23758;42.640;23.302;2024-01-30T00:34:44;3.90;;;3.70;;
37931;SDS011;23758;42.640;23.302;2024-01-30T00:37:09;3.80;;;3.60;;
37931;SDS011;23758;42.640;23.302;2024-01-30T00:39:35;3.90;;;3.70;;
37931;SDS011;23758;42.640;23.302;2024-01-30T00:42:00;4.13;;;3.83;;
37931;SDS011;23758;42.640;23.302;2024-01-30T00:44:25;4.10;;;3.80;;
37931;SDS011;23758;42.640;23.302;2024-01-30T00:46:51;3.92;;;3.70;;
37931;SDS011;23758;42.640;23.302;2024-01-30T00:49:16;3.85;;;3.65;;
37931;SDS011;23758;42.640;23.302;2024-01-30T00:51:42;3.90;;;3.70;;
37931;SDS011;23758;42.640;23.302;2024-01-30T00:54:07;3.80;;;3.60;;
37931;SDS011;23758;42.640;23.302;2024-01-30T00:56:33;4.22;;;3.92;;
37931;SDS011;23758;42.640;23.302;2024-01-30T00:58:59;4.25;;;3.95;;
37931;SDS011;23758;42.640;23.302;2024-01-30T01:01:24;3.80;;;3.60;;
37931;SDS011;23758;42.640;23.302;2024-01-30T01:03:49;3.70;;;3.50;;
37931;SDS011;23758;42.640;23.302;2024-01-30T01:06:15;4.13;;;3.85;;
37931;SDS011;23758;42.640;23.302;2024-01-30T01:08:41;3.80;;;3.60;;
37931;SDS011;23758;42.640;23.302;2024-01-30T01:11:06;3.80;;;3.60;;
37931;SDS011;23758;42.640;23.302;2024-01-30T01:13:31;3.95;;;3.67;;
37931;SDS011;23758;42.640;23.302;2024-01-30T01:15:57;3.80;;;3.60;;
37931;SDS011;23758;42.640;23.302;2024-01-30T01:18:22;4.15;;;3.85;;
37931;SDS011;23758;42.640;23.302;2024-01-30T01:20:48;3.90;;;3.70;;
37931;SDS011;23758;42.640;23.302;2024-01-30T01:23:14;3.70;;;3.50;;
37931;SDS011;23758;42.640;23.302;2024-01-30T01:25:39;3.80;;;3.60;;
37931;SDS011;23758;42.640;23.302;2024-01-30T01:28:05;4.10;;;3.80;;
37931;SDS011;23758;42.640;23.302;2024-01-30T01:30:30;4.72;;;4.43;;
37931;SDS011;23758;42.640;23.302;2024-01-30T01:32:56;3.90;;;3.70;;
37931;SDS011;23758;42.640;23.302;2024-01-30T01:35:23;3.88;;;3.65;;
37931;SDS011;23758;42.640;23.302;2024-01-30T01:37:52;4.28;;;3.90;;
37931;SDS011;23758;42.640;23.302;2024-01-30T01:40:24;3.92;;;3.70;;
37931;SDS011;23758;42.640;23.302;2024-01-30T01:42:50;3.92;;;3.72;;
37931;SDS011;23758;42.640;23.302;2024-01-30T01:45:19;4.10;;;3.80;;
37931;SDS011;23758;42.640;23.302;2024-01-30T01:47:45;4.07;;;3.78;;
37931;SDS011;23758;42.640;23.302;2024-01-30T01:50:13;4.20;;;3.90;;
37931;SDS011;23758;42.640;23.302;2024-01-30T01:52:43;4.10;;;3.80;;
37931;SDS011;23758;42.640;23.302;2024-01-30T01:55:10;3.90;;;3.70;;
37931;SDS011;23758;42.640;23.302;2024-01-30T01:57:36;4.20;;;3.90;;
37931;SDS011;23758;42.640;23.302;2024-01-30T02:00:02;3.90;;;3.70;;
37931;SDS011;23758;42.640;23.302;2024-01-30T02:02:30;3.80;;;3.60;;
37931;SDS011;23758;42.640;23.302;2024-01-30T02:04:57;3.90;;;3.70;;
37931;SDS011;23758;42.640;23.302;2024-01-30T02:07:23;3.90;;;3.70;;
37931;SDS011;23758;42.640;23.302;2024-01-30T02:09:49;3.67;;;3.47;;
37931;SDS011;23758;42.640;23.302;2024-01-30T02:12:14;3.80;;;3.60;;
37931;SDS011;23758;42.640;23.302;2024-01-30T02:14:49;3.83;;;3.63;;
37931;SDS011;23758;42.640;23.302;2024-01-30T02:17:15;4.13;;;3.83;;
37931;SDS011;23758;42.640;23.302;2024-01-30T02:19:41;3.95;;;3.70;;
37931;SDS011;23758;42.640;23.302;2024-01-30T02:22:07;3.70;;;3.50;;
37931;SDS011;23758;42.640;23.302;2024-01-30T02:24:33;4.15;;;3.85;;
37931;SDS011;23758;42.640;23.302;2024-01-30T02:26:58;3.83;;;3.63;;
37931;SDS011;23758;42.640;23.302;2024-01-30T02:29:24;4.00;;;3.70;;
37931;SDS011;23758;42.640;23.302;2024-01-30T02:31:49;4.18;;;3.88;;
37931;SDS011;23758;42.640;23.302;2024-01-30T02:34:15;3.72;;;3.53;;
37931;SDS011;23758;42.640;23.302;2024-01-30T02:36:43;4.18;;;3.90;;
37931;SDS011;23758;42.640;23.302;2024-01-30T02:39:09;3.70;;;3.50;;
37931;SDS011;23758;42.640;23.302;2024-01-30T02:41:35;3.63;;;3.42;;
37931;SDS011;23758;42.640;23.302;2024-01-30T02:44:01;3.70;;;3.50;;
37931;SDS011;23758;42.640;23.302;2024-01-30T02:46:27;3.70;;;3.50;;
37931;SDS011;23758;42.640;23.302;2024-01-30T02:48:52;3.60;;;3.40;;
37931;SDS011;23758;42.640;23.302;2024-01-30T02:51:17;3.60;;;3.40;;
37931;SDS011;23758;42.640;23.302;2024-01-30T02:53:43;3.70;;;3.50;;
37931;SDS011;23758;42.640;23.302;2024-01-30T02:56:09;3.85;;;3.63;;
37931;SDS011;23758;42.640;23.302;2024-01-30T02:58:38;4.00;;;3.70;;
37931;SDS011;23758;42.640;23.302;2024-01-30T03:01:04;3.70;;;3.50;;
37931;SDS011;23758;42.640;23.302;2024-01-30T03:03:30;3.70;;;3.50;;
37931;SDS011;23758;42.640;23.302;2024-01-30T03:05:55;3.60;;;3.40;;
37931;SDS011;23758;42.640;23.302;2024-01-30T03:08:21;3.70;;;3.50;;
37931;SDS011;23758;42.640;23.302;2024-01-30T03:10:46;3.60;;;3.40;;
37931;SDS011;23758;42.640;23.302;2024-01-30T03:13:11;3.75;;;3.55;;
37931;SDS011;23758;42.640;23.302;2024-01-30T03:15:37;4.00;;;3.70;;
37931;SDS011;23758;42.640;23.302;2024-01-30T03:18:02;3.80;;;3.60;;
37931;SDS011;23758;42.640;23.302;2024-01-30T03:20:31;3.60;;;3.40;;
37931;SDS011;23758;42.640;23.302;2024-01-30T03:22:57;3.70;;;3.50;;
37931;SDS011;23758;42.640;23.302;2024-01-30T03:25:24;3.80;;;3.60;;
37931;SDS011;23758;42.640;23.302;2024-01-30T03:27:50;3.70;;;3.50;;
37931;SDS011;23758;42.640;23.302;2024-01-30T03:30:16;3.67;;;3.47;;
37931;SDS011;23758;42.640;23.302;2024-01-30T03:32:42;3.78;;;3.58;;
37931;SDS011;23758;42.640;23.302;2024-01-30T03:35:07;3.60;;;3.40;;
37931;SDS011;23758;42.640;23.302;2024-01-30T03:37:33;3.75;;;3.55;;
37931;SDS011;23758;42.640;23.302;2024-01-30T03:39:59;4.00;;;3.70;;
37931;SDS011;23758;42.640;23.302;2024-01-30T03:42:24;3.70;;;3.50;;
37931;SDS011;23758;42.640;23.302;2024-01-30T03:44:50;3.60;;;3.40;;
37931;SDS011;23758;42.640;23.302;2024-01-30T03:47:18;3.72;;;3.53;;
37931;SDS011;23758;42.640;23.302;2024-01-30T03:49:45;3.80;;;3.60;;
37931;SDS011;23758;42.640;23.302;2024-01-30T03:52:10;3.70;;;3.50;;
37931;SDS011;23758;42.640;23.302;2024-01-30T03:54:36;3.70;;;3.50;;
37931;SDS011;23758;42.640;23.302;2024-01-30T03:57:01;3.70;;;3.50;;
37931;SDS011;23758;42.640;23.302;2024-01-30T03:59:27;3.65;;;3.45;;
37931;SDS011;23758;42.640;23.302;2024-01-30T04:01:52;3.60;;;3.40;;
37931;SDS011;23758;42.640;23.302;2024-01-30T04:04:18;3.80;;;3.60;;
37931;SDS011;23758;42.640;23.302;2024-01-30T04:06:44;3.80;;;3.60;;
37931;SDS011;23758;42.640;23.302;2024-01-30T04:09:10;3.63;;;3.42;;
37931;SDS011;23758;42.640;23.302;2024-01-30T04:11:36;4.10;;;3.80;;
37931;SDS011;23758;42.640;23.302;2024-01-30T04:14:01;3.80;;;3.60;;
37931;SDS011;23758;42.640;23.302;2024-01-30T04:16:27;3.75;;;3.55;;
37931;SDS011;23758;42.640;23.302;2024-01-30T04:18:52;3.80;;;3.60;;
37931;SDS011;23758;42.640;23.302;2024-01-30T04:21:18;3.70;;;3.50;;
37931;SDS011;23758;42.640;23.302;2024-01-30T04:23:43;4.05;;;3.75;;
37931;SDS011;23758;42.640;23.302;2024-01-30T04:26:09;3.65;;;3.45;;
37931;SDS011;23758;42.640;23.302;2024-01-30T04:28:34;3.70;;;3.50;;
37931;SDS011;23758;42.640;23.302;2024-01-30T04:31:00;3.70;;;3.50;;
37931;SDS011;23758;42.640;23.302;2024-01-30T04:33:25;3.80;;;3.60;;
37931;SDS011;23758;42.640;23.302;2024-01-30T04:35:50;3.70;;;3.50;;
37931;SDS011;23758;42.640;23.302;2024-01-30T04:38:17;3.70;;;3.50;;
37931;SDS011;23758;42.640;23.302;2024-01-30T04:40:42;3.70;;;3.50;;
37931;SDS011;23758;42.640;23.302;2024-01-30T04:43:08;3.72;;;3.53;;
37931;SDS011;23758;42.640;23.302;2024-01-30T04:45:33;3.70;;;3.50;;
37931;SDS011;23758;42.640;23.302;2024-01-30T04:47:59;3.80;;;3.60;;
37931;SDS011;23758;42.640;23.302;2024-01-30T04:50:24;3.70;;;3.50;;
37931;SDS011;23758;42.640;23.302;2024-01-30T04:52:51;3.72;;;3.53;;
37931;SDS011;23758;42.640;23.302;2024-01-30T04:55:17;3.85;;;3.65;;
37931;SDS011;23758;42.640;23.302;2024-01-30T04:57:42;3.70;;;3.50;;
37931;SDS011;23758;42.640;23.302;2024-01-30T05:00:08;3.80;;;3.60;;
37931;SDS011;23758;42.640;23.302;2024-01-30T05:02:34;3.92;;;3.72;;
37931;SDS011;23758;42.640;23.302;2024-01-30T05:04:59;4.00;;;3.70;;
37931;SDS011;23758;42.640;23.302;2024-01-30T05:07:25;3.70;;;3.50;;
37931;SDS011;23758;42.640;23.302;2024-01-30T05:09:50;3.95;;;3.70;;
37931;SDS011;23758;42.640;23.302;2024-01-30T05:12:16;3.75;;;3.55;;
37931;SDS011;23758;42.640;23.302;2024-01-30T05:14:41;4.10;;;3.80;;
37931;SDS011;23758;42.640;23.302;2024-01-30T05:17:07;3.88;;;3.67;;
37931;SDS011;23758;42.640;23.302;2024-01-30T05:19:35;4.38;;;4.07;;
37931;SDS011;23758;42.640;23.302;2024-01-30T05:22:00;3.90;;;3.70;;
37931;SDS011;23758;42.640;23.302;2024-01-30T05:24:26;3.80;;;3.60;;
37931;SDS011;23758;42.640;23.302;2024-01-30T05:26:51;3.90;;;3.60;;
37931;SDS011;23758;42.640;23.302;2024-01-30T05:29:16;3.80;;;3.60;;
37931;SDS011;23758;42.640;23.302;2024-01-30T05:31:42;4.05;;;3.75;;
37931;SDS011;23758;42.640;23.302;2024-01-30T05:34:07;4.10;;;3.80;;
37931;SDS011;23758;42.640;23.302;2024-01-30T05:36:34;4.20;;;3.90;;
37931;SDS011;23758;42.640;23.302;2024-01-30T05:38:59;4.10;;;3.80;;
37931;SDS011;23758;42.640;23.302;2024-01-30T05:41:24;3.72;;;3.53;;
37931;SDS011;23758;42.640;23.302;2024-01-30T05:43:50;4.13;;;3.83;;
37931;SDS011;23758;42.640;23.302;2024-01-30T05:46:18;3.90;;;3.70;;
37931;SDS011;23758;42.640;23.302;2024-01-30T05:48:44;4.03;;;3.72;;
37931;SDS011;23758;42.640;23.302;2024-01-30T05:51:09;3.92;;;3.70;;
37931;SDS011;23758;42.640;23.302;2024-01-30T05:53:35;4.10;;;3.80;;
37931;SDS011;23758;42.640;23.302;2024-01-30T05:56:03;4.40;;;4.10;;
37931;SDS011;23758;42.640;23.302;2024-01-30T05:58:29;4.30;;;4.00;;
37931;SDS011;23758;42.640;23.302;2024-01-30T06:00:56;4.20;;;3.90;;
37931;SDS011;23758;42.640;23.302;2024-01-30T06:03:22;3.90;;;3.67;;
37931;SDS011;23758;42.640;23.302;2024-01-30T06:05:47;4.00;;;3.75;;
37931;SDS011;23758;42.640;23.302;2024-01-30T06:08:13;4.10;;;3.80;;
37931;SDS011;23758;42.640;23.302;2024-01-30T06:10:38;4.20;;;3.90;;
37931;SDS011;23758;42.640;23.302;2024-01-30T06:13:04;4.07;;;3.80;;
37931;SDS011;23758;42.640;23.302;2024-01-30T06:15:29;4.55;;;4.25;;
37931;SDS011;23758;42.640;23.302;2024-01-30T06:17:55;4.13;;;3.83;;
37931;SDS011;23758;42.640;23.302;2024-01-30T06:20:20;4.15;;;3.85;;
37931;SDS011;23758;42.640;23.302;2024-01-30T06:22:46;4.10;;;3.80;;
37931;SDS011;23758;42.640;23.302;2024-01-30T06:25:11;3.90;;;3.70;;
37931;SDS011;23758;42.640;23.302;2024-01-30T06:27:37;4.32;;;4.03;;
37931;SDS011;23758;42.640;23.302;2024-01-30T06:30:03;3.88;;;3.67;;
37931;SDS011;23758;42.640;23.302;2024-01-30T06:32:29;3.90;;;3.70;;
37931;SDS011;23758;42.640;23.302;2024-01-30T06:34:59;4.40;;;4.10;;
37931;SDS011;23758;42.640;23.302;2024-01-30T06:37:28;3.60;;;3.40;;
37931;SDS011;23758;42.640;23.302;2024-01-30T06:39:53;4.10;;;3.80;;
37931;SDS011;23758;42.640;23.302;2024-01-30T06:42:19;3.88;;;3.67;;
37931;SDS011;23758;42.640;23.302;2024-01-30T06:44:45;4.20;;;3.90;;
37931;SDS011;23758;42.640;23.302;2024-01-30T06:47:10;4.10;;;3.80;;
37931;SDS011;23758;42.640;23.302;2024-01-30T06:49:36;4.47;;;4.18;;
37931;SDS011;23758;42.640;23.302;2024-01-30T06:52:07;3.90;;;3.70;;
37931;SDS011;23758;42.640;23.302;2024-01-30T06:54:33;4.25;;;3.95;;
37931;SDS011;23758;42.640;23.302;2024-01-30T06:56:58;4.07;;;3.78;;
37931;SDS011;23758;42.640;23.302;2024-01-30T06:59:24;4.30;;;4.00;;
37931;SDS011;23758;42.640;23.302;2024-01-30T07:01:49;3.78;;;3.58;;
37931;SDS011;23758;42.640;23.302;2024-01-30T07:04:15;3.90;;;3.70;;
37931;SDS011;23758;42.640;23.302;2024-01-30T07:06:41;3.90;;;3.70;;
37931;SDS011;23758;42.640;23.302;2024-01-30T07:09:06;3.90;;;3.70;;
37931;SDS011;23758;42.640;23.302;2024-01-30T07:11:32;3.90;;;3.70;;
37931;SDS011;23758;42.640;23.302;2024-01-30T07:13:57;3.80;;;3.60;;
37931;SDS011;23758;42.640;23.302;2024-01-30T07:16:23;3.80;;;3.60;;
37931;SDS011;23758;42.640;23.302;2024-01-30T07:18:49;3.75;;;3.55;;
37931;SDS011;23758;42.640;23.302;2024-01-30T07:21:15;3.90;;;3.70;;
37931;SDS011;23758;42.640;23.302;2024-01-30T07:23:40;3.80;;;3.60;;
37931;SDS011;23758;42.640;23.302;2024-01-30T07:26:07;3.80;;;3.60;;
37931;SDS011;23758;42.640;23.302;2024-01-30T07:28:33;3.83;;;3.63;;
37931;SDS011;23758;42.640;23.302;2024-01-30T07:30:59;3.90;;;3.70;;
37931;SDS011;23758;42.640;23.302;2024-01-30T07:33:25;3.80;;;3.60;;
37931;SDS011;23758;42.640;23.302;2024-01-30T07:35:51;3.80;;;3.60;;
37931;SDS011;23758;42.640;23.302;2024-01-30T07:38:17;3.80;;;3.60;;
37931;SDS011;23758;42.640;23.302;2024-01-30T07:40:43;3.80;;;3.60;;
37931;SDS011;23758;42.640;23.302;2024-01-30T07:43:08;3.75;;;3.55;;
37931;SDS011;23758;42.640;23.302;2024-01-30T07:45:34;3.60;;;3.40;;
37931;SDS011;23758;42.640;23.302;2024-01-30T07:47:59;3.80;;;3.60;;
37931;SDS011;23758;42.640;23.302;2024-01-30T07:50:25;3.90;;;3.70;;
37931;SDS011;23758;42.640;23.302;2024-01-30T07:52:51;3.80;;;3.60;;
37931;SDS011;23758;42.640;23.302;2024-01-30T07:55:20;3.60;;;3.40;;
37931;SDS011;23758;42.640;23.302;2024-01-30T07:57:52;3.80;;;3.60;;
37931;SDS011;23758;42.640;23.302;2024-01-30T08:00:18;3.83;;;3.60;;
37931;SDS011;23758;42.640;23.302;2024-01-30T08:02:53;3.60;;;3.40;;
37931;SDS011;23758;42.640;23.302;2024-01-30T08:05:20;3.70;;;3.50;;
37931;SDS011;23758;42.640;23.302;2024-01-30T08:07:47;3.60;;;3.40;;
37931;SDS011;23758;42.640;23.302;2024-01-30T08:10:14;3.60;;;3.40;;
37931;SDS011;23758;42.640;23.302;2024-01-30T08:12:39;3.70;;;3.50;;
37931;SDS011;23758;42.640;23.302;2024-01-30T08:15:05;3.70;;;3.50;;
37931;SDS011;23758;42.640;23.302;2024-01-30T08:17:31;3.65;;;3.45;;
37931;SDS011;23758;42.640;23.302;2024-01-30T08:19:56;3.70;;;3.50;;
37931;SDS011;23758;42.640;23.302;2024-01-30T08:22:22;3.75;;;3.55;;
37931;SDS011;23758;42.640;23.302;2024-01-30T08:24:47;3.55;;;3.35;;
37931;SDS011;23758;42.640;23.302;2024-01-30T08:27:12;3.88;;;3.63;;
37931;SDS011;23758;42.640;23.302;2024-01-30T08:29:38;3.53;;;3.33;;
37931;SDS011;23758;42.640;23.302;2024-01-30T08:32:05;3.50;;;3.30;;
37931;SDS011;23758;42.640;23.302;2024-01-30T08:34:31;3.75;;;3.55;;
37931;SDS011;23758;42.640;23.302;2024-01-30T08:36:57;3.70;;;3.50;;
37931;SDS011;23758;42.640;23.302;2024-01-30T08:39:22;3.70;;;3.50;;
37931;SDS011;23758;42.640;23.302;2024-01-30T08:41:48;3.70;;;3.50;;
37931;SDS011;23758;42.640;23.302;2024-01-30T08:44:13;3.60;;;3.40;;
37931;SDS011;23758;42.640;23.302;2024-01-30T08:46:39;3.40;;;3.20;;
37931;SDS011;23758;42.640;23.302;2024-01-30T08:49:05;3.70;;;3.50;;
37931;SDS011;23758;42.640;23.302;2024-01-30T08:51:30;3.40;;;3.20;;
37931;SDS011;23758;42.640;23.302;2024-01-30T08:53:56;3.50;;;3.30;;
37931;SDS011;23758;42.640;23.302;2024-01-30T08:56:21;3.70;;;3.50;;
37931;SDS011;23758;42.640;23.302;2024-01-30T08:58:47;3.50;;;3.30;;
37931;SDS011;23758;42.640;23.302;2024-01-30T09:01:12;3.60;;;3.40;;
37931;SDS011;23758;42.640;23.302;2024-01-30T09:03:38;3.67;;;3.47;;
37931;SDS011;23758;42.640;23.302;2024-01-30T09:06:09;3.40;;;3.20;;
37931;SDS011;23758;42.640;23.302;2024-01-30T09:08:37;3.47;;;3.28;;
37931;SDS011;23758;42.640;23.302;2024-01-30T09:11:09;3.50;;;3.30;;
37931;SDS011;23758;42.640;23.302;2024-01-30T09:13:38;3.50;;;3.30;;
37931;SDS011;23758;42.640;23.302;2024-01-30T09:16:03;3.50;;;3.30;;
37931;SDS011;23758;42.640;23.302;2024-01-30T09:18:29;3.67;;;3.47;;
37931;SDS011;23758;42.640;23.302;2024-01-30T09:20:55;3.40;;;3.20;;
37931;SDS011;23758;42.640;23.302;2024-01-30T09:23:20;3.72;;;3.47;;
37931;SDS011;23758;42.640;23.302;2024-01-30T09:25:46;3.53;;;3.33;;
37931;SDS011;23758;42.640;23.302;2024-01-30T09:28:12;3.60;;;3.40;;
37931;SDS011;23758;42.640;23.302;2024-01-30T09:30:37;3.45;;;3.25;;
37931;SDS011;23758;42.640;23.302;2024-01-30T09:33:03;3.70;;;3.50;;
37931;SDS011;23758;42.640;23.302;2024-01-30T09:35:28;3.60;;;3.40;;
37931;SDS011;23758;42.640;23.302;2024-01-30T09:37:55;3.50;;;3.30;;
37931;SDS011;23758;42.640;23.302;2024-01-30T09:40:20;3.42;;;3.22;;
37931;SDS011;23758;42.640;23.302;2024-01-30T09:42:50;3.50;;;3.30;;
37931;SDS011;23758;42.640;23.302;2024-01-30T09:45:17;3.70;;;3.50;;
37931;SDS011;23758;42.640;23.302;2024-01-30T09:47:44;3.75;;;3.55;;
37931;SDS011;23758;42.640;23.302;2024-01-30T09:50:10;3.60;;;3.40;;
37931;SDS011;23758;42.640;23.302;2024-01-30T09:52:37;3.45;;;3.25;;
37931;SDS011;23758;42.640;23.302;2024-01-30T09:55:03;3.40;;;3.20;;
37931;SDS011;23758;42.640;23.302;2024-01-30T09:57:29;3.28;;;3.08;;
37931;SDS011;23758;42.640;23.302;2024-01-30T09:59:55;3.47;;;3.28;;
37931;SDS011;23758;42.640;23.302;2024-01-30T10:02:20;3.30;;;3.10;;
37931;SDS011;23758;42.640;23.302;2024-01-30T10:04:50;3.40;;;3.20;;
37931;SDS011;23758;42.640;23.302;2024-01-30T10:07:19;3.30;;;3.10;;
37931;SDS011;23758;42.640;23.302;2024-01-30T10:09:45;3.30;;;3.10;;
37931;SDS011;23758;42.640;23.302;2024-01-30T10:12:12;3.40;;;3.20;;
37931;SDS011;23758;42.640;23.302;2024-01-30T10:14:41;3.40;;;3.20;;
37931;SDS011;23758;42.640;23.302;2024-01-30T10:17:07;3.40;;;3.20;;
37931;SDS011;23758;42.640;23.302;2024-01-30T10:19:34;3.40;;;3.20;;
37931;SDS011;23758;42.640;23.302;2024-01-30T10:22:00;3.42;;;3.22;;
37931;SDS011;23758;42.640;23.302;2024-01-30T10:24:26;3.58;;;3.38;;
37931;SDS011;23758;42.640;23.302;2024-01-30T10:26:52;3.20;;;3.00;;
37931;SDS011;23758;42.640;23.302;2024-01-30T10:29:18;3.30;;;3.10;;
37931;SDS011;23758;42.640;23.302;2024-01-30T10:31:43;3.42;;;3.22;;
37931;SDS011;23758;42.640;23.302;2024-01-30T10:34:09;3.45;;;3.25;;
37931;SDS011;23758;42.640;23.302;2024-01-30T10:36:37;4.80;;;3.45;;
37931;SDS011;23758;42.640;23.302;2024-01-30T10:39:06;3.22;;;3.03;;
37931;SDS011;23758;42.640;23.302;2024-01-30T10:41:31;3.40;;;3.20;;
37931;SDS011;23758;42.640;23.302;2024-01-30T10:44:08;3.42;;;3.22;;
37931;SDS011;23758;42.640;23.302;2024-01-30T10:46:35;3.40;;;3.20;;
37931;SDS011;23758;42.640;23.302;2024-01-30T10:49:01;3.40;;;3.20;;
37931;SDS011;23758;42.640;23.302;2024-01-30T10:51:27;3.40;;;3.20;;
37931;SDS011;23758;42.640;23.302;2024-01-30T10:53:53;3.40;;;3.20;;
37931;SDS011;23758;42.640;23.302;2024-01-30T10:56:22;3.40;;;3.20;;
37931;SDS011;23758;42.640;23.302;2024-01-30T10:58:51;3.42;;;3.22;;
37931;SDS011;23758;42.640;23.302;2024-01-30T11:01:24;3.40;;;3.20;;
37931;SDS011;23758;42.640;23.302;2024-01-30T11:03:50;3.60;;;3.40;;
37931;SDS011;23758;42.640;23.302;2024-01-30T11:06:16;3.72;;;3.50;;
37931;SDS011;23758;42.640;23.302;2024-01-30T11:08:43;3.33;;;3.13;;
37931;SDS011;23758;42.640;23.302;2024-01-30T11:11:10;3.30;;;3.10;;
37931;SDS011;23758;42.640;23.302;2024-01-30T11:13:35;3.35;;;3.15;;
37931;SDS011;23758;42.640;23.302;2024-01-30T11:16:02;3.30;;;3.10;;
37931;SDS011;23758;42.640;23.302;2024-01-30T11:18:32;3.58;;;3.28;;
37931;SDS011;23758;42.640;23.302;2024-01-30T11:21:00;3.50;;;3.30;;
37931;SDS011;23758;42.640;23.302;2024-01-30T11:23:30;3.40;;;3.20;;
37931;SDS011;23758;42.640;23.302;2024-01-30T11:25:58;3.40;;;3.20;;
37931;SDS011;23758;42.640;23.302;2024-01-30T11:28:23;3.50;;;3.30;;
37931;SDS011;23758;42.640;23.302;2024-01-30T11:30:49;3.30;;;3.10;;
37931;SDS011;23758;42.640;23.302;2024-01-30T11:33:16;3.40;;;3.20;;
37931;SDS011;23758;42.640;23.302;2024-01-30T11:35:52;3.50;;;3.30;;
37931;SDS011;23758;42.640;23.302;2024-01-30T11:38:18;3.40;;;3.20;;
37931;SDS011;23758;42.640;23.302;2024-01-30T11:40:44;3.40;;;3.20;;
37931;SDS011;23758;42.640;23.302;2024-01-30T11:43:09;3.40;;;3.20;;
37931;SDS011;23758;42.640;23.302;2024-01-30T11:45:35;3.40;;;3.20;;
37931;SDS011;23758;42.640;23.302;2024-01-30T11:48:01;3.67;;;3.47;;
37931;SDS011;23758;42.640;23.302;2024-01-30T11:50:35;3.10;;;2.90;;
37931;SDS011;23758;42.640;23.302;2024-01-30T11:53:00;3.30;;;3.10;;
37931;SDS011;23758;42.640;23.302;2024-01-30T11:55:26;3.20;;;3.00;;
37931;SDS011;23758;42.640;23.302;2024-01-30T11:57:56;3.33;;;3.13;;
37931;SDS011;23758;42.640;23.302;2024-01-30T12:00:22;3.30;;;3.10;;
37931;SDS011;23758;42.640;23.302;2024-01-30T12:02:51;3.38;;;3.17;;
37931;SDS011;23758;42.640;23.302;2024-01-30T12:05:21;3.30;;;3.10;;
37931;SDS011;23758;42.640;23.302;2024-01-30T12:07:46;3.40;;;3.20;;
37931;SDS011;23758;42.640;23.302;2024-01-30T12:10:12;3.40;;;3.20;;
37931;SDS011;23758;42.640;23.302;2024-01-30T12:12:39;3.50;;;3.30;;
37931;SDS011;23758;42.640;23.302;2024-01-30T12:15:04;3.47;;;3.28;;
37931;SDS011;23758;42.640;23.302;2024-01-30T12:17:32;3.50;;;3.30;;
37931;SDS011;23758;42.640;23.302;2024-01-30T12:22:35;3.40;;;3.20;;
37931;SDS011;23758;42.640;23.302;2024-01-30T12:25:12;3.40;;;3.20;;
37931;SDS011;23758;42.640;23.302;2024-01-30T12:27:38;3.45;;;3.25;;
37931;SDS011;23758;42.640;23.302;2024-01-30T12:30:05;3.50;;;3.30;;
37931;SDS011;23758;42.640;23.302;2024-01-30T12:32:33;3.55;;;3.33;;
37931;SDS011;23758;42.640;23.302;2024-01-30T12:35:00;3.50;;;3.30;;
37931;SDS011;23758;42.640;23.302;2024-01-30T12:37:25;3.60;;;3.40;;
37931;SDS011;23758;42.640;23.302;2024-01-30T12:39:51;3.60;;;3.40;;
37931;SDS011;23758;42.640;23.302;2024-01-30T12:42:19;3.50;;;3.30;;
37931;SDS011;23758;42.640;23.302;2024-01-30T12:44:45;3.50;;;3.30;;
37931;SDS011;23758;42.640;23.302;2024-01-30T12:47:11;3.50;;;3.30;;
37931;SDS011;23758;42.640;23.302;2024-01-30T12:49:36;3.60;;;3.40;;
37931;SDS011;23758;42.640;23.302;2024-01-30T12:52:01;3.60;;;3.40;;
37931;SDS011;23758;42.640;23.302;2024-01-30T12:54:27;3.50;;;3.30;;
37931;SDS011;23758;42.640;23.302;2024-01-30T12:56:53;3.53;;;3.33;;
37931;SDS011;23758;42.640;23.302;2024-01-30T12:59:18;3.95;;;3.65;;
37931;SDS011;23758;42.640;23.302;2024-01-30T13:01:44;3.60;;;3.40;;
37931;SDS011;23758;42.640;23.302;2024-01-30T13:04:09;3.50;;;3.30;;
37931;SDS011;23758;42.640;23.302;2024-01-30T13:06:35;3.60;;;3.40;;
37931;SDS011;23758;42.640;23.302;2024-01-30T13:09:00;3.50;;;3.30;;
37931;SDS011;23758;42.640;23.302;2024-01-30T13:11:26;3.30;;;3.10;;
37931;SDS011;23758;42.640;23.302;2024-01-30T13:13:51;3.50;;;3.30;;
37931;SDS011;23758;42.640;23.302;2024-01-30T13:16:17;3.60;;;3.40;;
37931;SDS011;23758;42.640;23.302;2024-01-30T13:18:43;3.50;;;3.30;;
37931;SDS011;23758;42.640;23.302;2024-01-30T13:21:09;3.60;;;3.40;;
37931;SDS011;23758;42.640;23.302;2024-01-30T13:23:34;3.53;;;3.30;;
37931;SDS011;23758;42.640;23.302;2024-01-30T13:26:00;3.60;;;3.40;;
37931;SDS011;23758;42.640;23.302;2024-01-30T13:28:25;3.60;;;3.40;;
37931;SDS011;23758;42.640;23.302;2024-01-30T13:30:51;3.40;;;3.20;;
37931;SDS011;23758;42.640;23.302;2024-01-30T13:33:17;3.53;;;3.33;;
37931;SDS011;23758;42.640;23.302;2024-01-30T13:35:42;3.67;;;3.47;;
37931;SDS011;23758;42.640;23.302;2024-01-30T13:38:08;3.40;;;3.20;;
37931;SDS011;23758;42.640;23.302;2024-01-30T13:40:35;3.50;;;3.30;;
37931;SDS011;23758;42.640;23.302;2024-01-30T13:43:00;3.38;;;3.17;;
37931;SDS011;23758;42.640;23.302;2024-01-30T13:45:26;3.50;;;3.30;;
37931;SDS011;23758;42.640;23.302;2024-01-30T13:47:51;3.50;;;3.30;;
37931;SDS011;23758;42.640;23.302;2024-01-30T13:50:17;3.63;;;3.42;;
37931;SDS011;23758;42.640;23.302;2024-01-30T13:52:42;3.45;;;3.25;;
37931;SDS011;23758;42.640;23.302;2024-01-30T13:55:08;3.60;;;3.40;;
37931;SDS011;23758;42.640;23.302;2024-01-30T13:57:35;3.40;;;3.20;;
37931;SDS011;23758;42.640;23.302;2024-01-30T14:00:03;3.50;;;3.30;;
37931;SDS011;23758;42.640;23.302;2024-01-30T14:02:31;3.50;;;3.30;;
37931;SDS011;23758;42.640;23.302;2024-01-30T14:04:57;4.00;;;3.70;;
37931;SDS011;23758;42.640;23.302;2024-01-30T14:07:22;3.50;;;3.30;;
37931;SDS011;23758;42.640;23.302;2024-01-30T14:09:48;3.40;;;3.20;;
37931;SDS011;23758;42.640;23.302;2024-01-30T14:12:14;3.55;;;3.35;;
37931;SDS011;23758;42.640;23.302;2024-01-30T14:14:39;3.50;;;3.30;;
37931;SDS011;23758;42.640;23.302;2024-01-30T14:17:05;3.40;;;3.20;;
37931;SDS011;23758;42.640;23.302;2024-01-30T14:19:32;3.60;;;3.40;;
37931;SDS011;23758;42.640;23.302;2024-01-30T14:21:58;3.40;;;3.20;;
37931;SDS011;23758;42.640;23.302;2024-01-30T14:24:23;3.50;;;3.30;;
37931;SDS011;23758;42.640;23.302;2024-01-30T14:26:49;3.50;;;3.30;;
37931;SDS011;23758;42.640;23.302;2024-01-30T14:29:14;3.55;;;3.35;;